Time,TemperatureF,DewpointF,PressureIn,WindDirection,WindDirectionDegrees,WindSpeedMPH,WindSpeedGustMPH,Humidity,HourlyPrecipIn,Conditions,Clouds,dailyrainin,SoftwareType,DateUTC
2017-10-23 00:02:00,41.9,40.6,30.07,West,268,0.0,4.0,95,0.00,,,1.79,VWS V15.00,2017-10-23 05:02:00,
2017-10-23 00:12:00,41.6,40.3,30.07,West,268,0.0,4.0,95,0.00,,,0.00,VWS V15.00,2017-10-23 05:12:00,
2017-10-23 00:22:00,41.4,40.1,30.07,West,268,0.0,4.0,95,0.00,,,0.00,VWS V15.00,2017-10-23 05:22:00,
2017-10-23 00:27:00,41.3,40.0,30.07,West,268,0.0,4.0,95,0.00,,,0.00,VWS V15.00,2017-10-23 05:27:00,
2017-10-23 00:32:00,41.1,39.8,30.07,West,268,0.0,4.0,95,0.00,,,0.00,VWS V15.00,2017-10-23 05:32:00,
2017-10-23 00:37:00,41.0,39.7,30.07,West,268,0.0,4.0,95,0.00,,,0.00,VWS V15.00,2017-10-23 05:37:00,
2017-10-23 00:42:00,40.9,39.6,30.07,West,268,0.0,4.0,95,0.00,,,0.00,VWS V15.00,2017-10-23 05:42:00,
2017-10-23 00:47:00,40.7,39.4,30.07,West,268,0.0,4.0,95,0.00,,,0.00,VWS V15.00,2017-10-23 05:47:00,
2017-10-23 00:57:00,40.6,39.3,30.07,West,268,0.0,4.0,95,0.00,,,0.00,VWS V15.00,2017-10-23 05:57:00,
2017-10-23 01:02:00,40.4,39.1,30.07,West,268,0.0,4.0,95,0.00,,,0.00,VWS V15.00,2017-10-23 06:02:00,
2017-10-23 01:07:00,40.3,39.0,30.07,West,268,0.0,4.0,95,0.00,,,0.00,VWS V15.00,2017-10-23 06:07:00,
2017-10-23 01:12:00,40.2,38.9,30.07,West,268,0.0,4.0,95,0.00,,,0.00,VWS V15.00,2017-10-23 06:12:00,
2017-10-23 01:22:00,40.0,38.7,30.06,West,268,0.0,4.0,95,0.00,,,0.00,VWS V15.00,2017-10-23 06:22:00,
2017-10-23 01:32:00,39.9,38.6,30.06,West,268,0.0,4.0,95,0.00,,,0.00,VWS V15.00,2017-10-23 06:32:00,
2017-10-23 01:42:00,39.8,38.5,30.06,West,268,0.0,4.0,95,0.00,,,0.00,VWS V15.00,2017-10-23 06:42:00,
2017-10-23 01:47:00,39.7,38.4,30.06,West,268,0.0,4.0,95,0.00,,,0.00,VWS V15.00,2017-10-23 06:47:00,
2017-10-23 01:52:00,39.6,38.3,30.06,West,268,0.0,4.0,95,0.00,,,0.00,VWS V15.00,2017-10-23 06:52:00,
2017-10-23 01:57:00,39.6,38.6,30.06,West,268,0.0,4.0,96,0.00,,,0.00,VWS V15.00,2017-10-23 06:57:00,
2017-10-23 02:02:00,39.5,38.5,30.06,West,268,0.0,4.0,96,0.00,,,0.00,VWS V15.00,2017-10-23 07:02:00,
2017-10-23 02:07:00,39.4,38.4,30.06,West,268,0.0,4.0,96,0.00,,,0.00,VWS V15.00,2017-10-23 07:07:00,
2017-10-23 02:12:00,39.4,38.1,30.06,West,268,0.0,4.0,95,0.00,,,0.00,VWS V15.00,2017-10-23 07:12:00,
2017-10-23 02:17:00,39.4,38.4,30.06,West,268,0.0,4.0,96,0.00,,,0.00,VWS V15.00,2017-10-23 07:17:00,
2017-10-23 02:22:00,39.3,38.0,30.06,West,268,0.0,4.0,95,0.00,,,0.00,VWS V15.00,2017-10-23 07:22:00,
2017-10-23 02:27:00,39.4,38.4,30.06,West,268,0.0,4.0,96,0.00,,,0.00,VWS V15.00,2017-10-23 07:27:00,
2017-10-23 02:37:00,39.7,38.7,30.05,West,268,0.0,4.0,96,0.00,,,0.00,VWS V15.00,2017-10-23 07:37:00,
2017-10-23 02:42:00,39.7,38.7,30.05,West,268,0.0,4.0,96,0.00,,,0.00,VWS V15.00,2017-10-23 07:42:00,
2017-10-23 02:47:00,39.7,38.7,30.05,West,268,0.0,4.0,96,0.00,,,0.00,VWS V15.00,2017-10-23 07:47:00,
2017-10-23 02:57:00,39.9,38.8,30.05,West,268,0.0,4.0,96,0.00,,,0.00,VWS V15.00,2017-10-23 07:57:00,
2017-10-23 03:02:00,40.1,39.0,30.05,West,268,0.0,4.0,96,0.00,,,0.00,VWS V15.00,2017-10-23 08:02:00,
2017-10-23 03:07:00,40.3,39.2,30.05,West,268,0.0,4.0,96,0.00,,,0.00,VWS V15.00,2017-10-23 08:07:00,
2017-10-23 03:12:00,40.4,39.3,30.05,West,268,0.0,4.0,96,0.00,,,0.00,VWS V15.00,2017-10-23 08:12:00,
2017-10-23 03:17:00,40.4,39.3,30.04,West,268,0.0,4.0,96,0.00,,,0.00,VWS V15.00,2017-10-23 08:17:00,
2017-10-23 03:22:00,40.3,39.2,30.04,West,268,0.0,4.0,96,0.00,,,0.00,VWS V15.00,2017-10-23 08:22:00,
2017-10-23 03:27:00,40.4,39.3,30.04,West,268,0.0,4.0,96,0.00,,,0.00,VWS V15.00,2017-10-23 08:27:00,
2017-10-23 03:37:00,40.9,39.8,30.03,West,268,0.0,4.0,96,0.00,,,0.00,VWS V15.00,2017-10-23 08:37:00,
2017-10-23 03:42:00,41.0,40.0,30.03,West,268,0.0,4.0,96,0.00,,,0.00,VWS V15.00,2017-10-23 08:42:00,
2017-10-23 03:47:00,41.0,40.0,30.02,West,268,0.0,4.0,96,0.00,,,0.00,VWS V15.00,2017-10-23 08:47:00,
2017-10-23 03:57:00,40.7,39.7,30.02,West,268,0.0,4.0,96,0.00,,,0.00,VWS V15.00,2017-10-23 08:57:00,
2017-10-23 04:02:00,40.6,39.5,30.01,West,268,0.0,4.0,96,0.00,,,0.00,VWS V15.00,2017-10-23 09:02:00,
2017-10-23 04:07:00,40.4,39.3,30.01,West,268,0.0,4.0,96,0.00,,,0.00,VWS V15.00,2017-10-23 09:07:00,
2017-10-23 04:12:00,40.4,39.3,30.01,West,268,0.0,4.0,96,0.00,,,0.00,VWS V15.00,2017-10-23 09:12:00,
2017-10-23 04:17:00,40.4,39.3,30.02,West,268,0.0,4.0,96,0.00,,,0.00,VWS V15.00,2017-10-23 09:17:00,
2017-10-23 04:22:00,40.4,39.3,30.02,West,268,0.0,4.0,96,0.00,,,0.00,VWS V15.00,2017-10-23 09:22:00,
2017-10-23 04:32:00,40.3,39.2,30.02,West,268,0.0,4.0,96,0.00,,,0.00,VWS V15.00,2017-10-23 09:32:00,
2017-10-23 04:37:00,40.3,39.2,30.02,West,268,0.0,4.0,96,0.00,,,0.00,VWS V15.00,2017-10-23 09:37:00,
2017-10-23 04:42:00,40.2,39.2,30.02,West,268,0.0,4.0,96,0.00,,,0.00,VWS V15.00,2017-10-23 09:42:00,
2017-10-23 04:52:00,40.1,39.0,30.02,West,268,0.0,4.0,96,0.00,,,0.00,VWS V15.00,2017-10-23 09:52:00,
2017-10-23 04:57:00,40.0,39.0,30.02,West,268,0.0,4.0,96,0.00,,,0.00,VWS V15.00,2017-10-23 09:57:00,
2017-10-23 05:02:00,39.9,38.8,30.02,West,268,0.0,4.0,96,0.00,,,0.00,VWS V15.00,2017-10-23 10:02:00,
2017-10-23 05:12:00,39.8,38.8,30.02,West,268,0.0,4.0,96,0.00,,,0.00,VWS V15.00,2017-10-23 10:12:00,
2017-10-23 05:17:00,39.8,38.8,30.02,West,268,0.0,4.0,96,0.00,,,0.00,VWS V15.00,2017-10-23 10:17:00,
2017-10-23 05:22:00,39.8,38.8,30.02,West,268,0.0,4.0,96,0.00,,,0.00,VWS V15.00,2017-10-23 10:22:00,
2017-10-23 05:32:00,39.7,38.7,30.02,West,268,0.0,4.0,96,0.00,,,0.00,VWS V15.00,2017-10-23 10:32:00,
2017-10-23 05:37:00,39.6,38.6,30.02,West,268,0.0,4.0,96,0.00,,,0.00,VWS V15.00,2017-10-23 10:37:00,
2017-10-23 05:47:00,39.6,38.6,30.02,West,268,0.0,4.0,96,0.00,,,0.00,VWS V15.00,2017-10-23 10:47:00,
2017-10-23 05:52:00,39.7,38.7,30.02,West,268,0.0,4.0,96,0.00,,,0.00,VWS V15.00,2017-10-23 10:52:00,
2017-10-23 05:57:00,39.8,38.8,30.02,West,268,0.0,4.0,96,0.00,,,0.00,VWS V15.00,2017-10-23 10:57:00,
2017-10-23 06:02:00,39.9,39.1,30.02,West,268,0.0,4.0,97,0.00,,,0.00,VWS V15.00,2017-10-23 11:02:00,
2017-10-23 06:12:00,40.1,39.3,30.02,West,268,0.0,4.0,97,0.00,,,0.00,VWS V15.00,2017-10-23 11:12:00,
2017-10-23 06:17:00,40.1,39.3,30.03,West,268,0.0,4.0,97,0.00,,,0.00,VWS V15.00,2017-10-23 11:17:00,
2017-10-23 06:22:00,40.0,39.2,30.03,West,268,0.0,4.0,97,0.00,,,0.00,VWS V15.00,2017-10-23 11:22:00,
2017-10-23 06:27:00,39.8,38.8,30.03,West,268,0.0,4.0,96,0.00,,,0.00,VWS V15.00,2017-10-23 11:27:00,
2017-10-23 06:37:00,39.6,38.6,30.02,West,268,0.0,4.0,96,0.00,,,0.00,VWS V15.00,2017-10-23 11:37:00,
2017-10-23 06:42:00,39.5,38.7,30.02,West,268,0.0,4.0,97,0.00,,,0.00,VWS V15.00,2017-10-23 11:42:00,
2017-10-23 06:52:00,39.4,38.6,30.01,West,268,0.0,4.0,97,0.00,,,0.00,VWS V15.00,2017-10-23 11:52:00,
2017-10-23 06:57:00,39.4,38.6,30.01,West,268,0.0,4.0,97,0.00,,,0.00,VWS V15.00,2017-10-23 11:57:00,
2017-10-23 07:02:00,39.6,38.6,30.01,West,268,0.0,4.0,96,0.00,,,0.00,VWS V15.00,2017-10-23 12:02:00,
2017-10-23 07:07:00,40.0,39.2,30.01,West,268,1.0,4.0,97,0.00,,,0.00,VWS V15.00,2017-10-23 12:07:00,
2017-10-23 07:12:00,40.6,39.8,30.01,West,268,0.0,4.0,97,0.00,,,0.00,VWS V15.00,2017-10-23 12:12:00,
2017-10-23 07:17:00,41.0,40.2,30.00,West,268,1.0,4.0,97,0.00,,,0.00,VWS V15.00,2017-10-23 12:17:00,
2017-10-23 07:22:00,41.5,40.7,30.00,West,268,1.0,4.0,97,0.00,,,0.00,VWS V15.00,2017-10-23 12:22:00,
2017-10-23 07:27:00,41.6,40.8,30.00,West,268,0.0,4.0,97,0.00,,,0.00,VWS V15.00,2017-10-23 12:27:00,
2017-10-23 07:37:00,41.5,40.7,30.00,West,268,0.0,4.0,97,0.00,,,0.00,VWS V15.00,2017-10-23 12:37:00,
2017-10-23 07:42:00,41.4,40.6,30.00,West,268,0.0,4.0,97,0.00,,,0.00,VWS V15.00,2017-10-23 12:42:00,
2017-10-23 07:52:00,41.2,40.4,30.00,West,268,0.0,4.0,97,0.00,,,0.00,VWS V15.00,2017-10-23 12:52:00,
2017-10-23 08:02:00,41.0,40.2,30.01,West,268,0.0,4.0,97,0.00,,,0.00,VWS V15.00,2017-10-23 13:02:00,
2017-10-23 08:12:00,41.0,40.2,30.01,West,268,0.0,4.0,97,0.00,,,0.00,VWS V15.00,2017-10-23 13:12:00,
2017-10-23 08:17:00,41.1,40.3,30.02,West,268,0.0,4.0,97,0.00,,,0.00,VWS V15.00,2017-10-23 13:17:00,
2017-10-23 08:22:00,41.2,40.4,30.02,West,268,0.0,4.0,97,0.00,,,0.00,VWS V15.00,2017-10-23 13:22:00,
2017-10-23 08:27:00,41.5,40.7,30.02,West,268,0.0,4.0,97,0.00,,,0.00,VWS V15.00,2017-10-23 13:27:00,
2017-10-23 08:32:00,42.5,41.7,30.02,SSE,162,0.0,4.0,97,0.00,,,0.00,VWS V15.00,2017-10-23 13:32:00,
2017-10-23 08:37:00,43.5,42.7,30.02,SSE,162,0.0,4.0,97,0.00,,,0.00,VWS V15.00,2017-10-23 13:37:00,
2017-10-23 08:42:00,44.3,43.5,30.02,SSE,162,0.0,4.0,97,0.00,,,0.00,VWS V15.00,2017-10-23 13:42:00,
2017-10-23 08:47:00,45.4,44.6,30.01,SSE,162,1.0,4.0,97,0.00,,,0.00,VWS V15.00,2017-10-23 13:47:00,
2017-10-23 08:52:00,45.8,45.0,30.01,SSE,162,0.0,4.0,97,0.00,,,0.00,VWS V15.00,2017-10-23 13:52:00,
2017-10-23 08:57:00,46.4,45.6,30.01,SE,132,2.0,4.0,97,0.00,,,0.00,VWS V15.00,2017-10-23 13:57:00,
2017-10-23 09:02:00,46.9,46.1,30.02,SE,129,1.0,4.0,97,0.00,,,0.00,VWS V15.00,2017-10-23 14:02:00,
2017-10-23 09:12:00,48.3,47.5,30.02,SE,129,1.0,4.0,97,0.00,,,0.00,VWS V15.00,2017-10-23 14:12:00,
2017-10-23 09:17:00,49.0,48.2,30.03,ESE,115,0.0,4.0,97,0.00,,,0.00,VWS V15.00,2017-10-23 14:17:00,
2017-10-23 09:27:00,50.1,49.0,30.03,NNE,17,0.0,4.0,96,0.00,,,0.00,VWS V15.00,2017-10-23 14:27:00,
2017-10-23 09:32:00,50.9,49.5,30.02,NNW,347,0.0,4.0,95,0.00,,,0.00,VWS V15.00,2017-10-23 14:32:00,
2017-10-23 09:37:00,51.7,48.9,30.02,South,171,0.0,4.0,90,0.00,,,0.00,VWS V15.00,2017-10-23 14:37:00,
2017-10-23 09:42:00,52.4,48.7,30.02,South,187,1.0,4.0,87,0.00,,,0.00,VWS V15.00,2017-10-23 14:42:00,
2017-10-23 09:47:00,53.1,48.4,30.01,South,182,1.0,4.0,84,0.00,,,0.00,VWS V15.00,2017-10-23 14:47:00,
2017-10-23 09:52:00,53.9,49.2,30.01,SSE,163,1.0,4.0,84,0.00,,,0.00,VWS V15.00,2017-10-23 14:52:00,
2017-10-23 09:57:00,54.6,48.6,30.01,SW,227,3.0,4.0,80,0.00,,,0.00,VWS V15.00,2017-10-23 14:57:00,
2017-10-23 10:02:00,55.2,48.5,30.00,WSW,249,2.0,4.0,78,0.00,,,0.00,VWS V15.00,2017-10-23 15:02:00,
2017-10-23 10:07:00,55.7,48.3,30.00,WSW,252,1.0,4.0,76,0.00,,,0.00,VWS V15.00,2017-10-23 15:07:00,
2017-10-23 10:12:00,56.2,47.7,30.00,SSW,196,2.0,4.0,73,0.00,,,0.00,VWS V15.00,2017-10-23 15:12:00,
2017-10-23 10:27:00,58.6,48.9,30.00,West,269,1.0,4.0,70,0.00,,,0.00,VWS V15.00,2017-10-23 15:27:00,
2017-10-23 10:32:00,59.5,49.3,29.99,SW,218,3.0,4.0,69,0.00,,,0.00,VWS V15.00,2017-10-23 15:32:00,
2017-10-23 10:37:00,60.0,49.8,29.99,SW,220,1.0,4.0,69,0.00,,,0.00,VWS V15.00,2017-10-23 15:37:00,
2017-10-23 10:42:00,60.6,49.2,29.99,SW,225,1.0,4.0,66,0.00,,,0.00,VWS V15.00,2017-10-23 15:42:00,
2017-10-23 10:47:00,60.7,49.7,29.98,South,175,2.0,4.0,67,0.00,,,0.00,VWS V15.00,2017-10-23 15:47:00,
2017-10-23 10:52:00,61.0,50.0,29.98,South,175,1.0,4.0,67,0.00,,,0.00,VWS V15.00,2017-10-23 15:52:00,
2017-10-23 10:57:00,61.6,50.5,29.98,SSE,151,1.0,4.0,67,0.00,,,0.00,VWS V15.00,2017-10-23 15:57:00,
2017-10-23 11:02:00,62.1,48.9,29.97,SE,144,2.0,4.0,62,0.00,,,0.00,VWS V15.00,2017-10-23 16:02:00,
2017-10-23 11:07:00,62.7,49.5,29.97,SSW,211,1.0,4.0,62,0.00,,,0.00,VWS V15.00,2017-10-23 16:07:00,
2017-10-23 11:17:00,63.7,46.8,29.98,NW,315,3.0,4.0,54,0.00,,,0.00,VWS V15.00,2017-10-23 16:17:00,
2017-10-23 11:22:00,64.1,48.6,29.98,WSW,238,3.0,4.0,57,0.00,,,0.00,VWS V15.00,2017-10-23 16:22:00,
2017-10-23 11:27:00,63.9,45.4,29.98,NNW,333,4.0,4.0,51,0.00,,,0.00,VWS V15.00,2017-10-23 16:27:00,
2017-10-23 11:32:00,63.9,46.0,29.98,WSW,242,3.0,4.0,52,0.00,,,0.00,VWS V15.00,2017-10-23 16:32:00,
2017-10-23 11:37:00,63.9,46.0,29.98,WSW,237,2.0,4.0,52,0.00,,,0.00,VWS V15.00,2017-10-23 16:37:00,
2017-10-23 11:47:00,65.2,45.6,29.97,South,173,2.0,4.0,49,0.00,,,0.00,VWS V15.00,2017-10-23 16:47:00,
2017-10-23 11:52:00,65.6,46.5,29.97,WSW,246,3.0,4.0,50,0.00,,,0.00,VWS V15.00,2017-10-23 16:52:00,
2017-10-23 11:57:00,65.9,45.7,29.97,South,186,5.0,5.0,48,0.00,,,0.00,VWS V15.00,2017-10-23 16:57:00,
2017-10-23 12:02:00,65.7,45.5,29.97,SSE,151,4.0,4.0,48,0.00,,,0.00,VWS V15.00,2017-10-23 17:02:00,
2017-10-23 12:07:00,66.3,44.3,29.97,SW,236,2.0,4.0,45,0.00,,,0.00,VWS V15.00,2017-10-23 17:07:00,
2017-10-23 12:17:00,65.9,46.2,29.95,SSW,202,1.0,4.0,49,0.00,,,0.00,VWS V15.00,2017-10-23 17:17:00,
2017-10-23 12:22:00,65.2,45.0,29.95,West,261,3.0,4.0,48,0.00,,,0.00,VWS V15.00,2017-10-23 17:22:00,
2017-10-23 12:27:00,66.6,46.3,29.95,SSE,151,1.0,4.0,48,0.00,,,0.00,VWS V15.00,2017-10-23 17:27:00,
2017-10-23 12:32:00,67.5,46.0,29.95,SW,215,4.0,4.0,46,0.00,,,0.00,VWS V15.00,2017-10-23 17:32:00,
2017-10-23 12:37:00,67.6,46.1,29.95,East,98,0.0,4.0,46,0.00,,,0.00,VWS V15.00,2017-10-23 17:37:00,
2017-10-23 12:47:00,67.9,45.8,29.93,SSW,198,7.0,7.0,45,0.01,,,0.01,VWS V15.00,2017-10-23 17:47:00,
2017-10-23 12:52:00,67.3,48.6,29.93,SSE,167,2.0,4.0,51,0.01,,,0.01,VWS V15.00,2017-10-23 17:52:00,
2017-10-23 13:02:00,69.3,48.8,29.93,WNW,292,2.0,4.0,48,0.01,,,0.01,VWS V15.00,2017-10-23 18:02:00,
2017-10-23 13:07:00,69.7,47.4,29.93,SSE,162,0.0,4.0,45,0.01,,,0.01,VWS V15.00,2017-10-23 18:07:00,
2017-10-23 13:12:00,70.6,47.7,29.93,NNE,15,3.0,4.0,44,0.01,,,0.01,VWS V15.00,2017-10-23 18:12:00,
2017-10-23 13:17:00,70.2,46.7,29.92,ENE,77,1.0,4.0,43,0.01,,,0.01,VWS V15.00,2017-10-23 18:17:00,
2017-10-23 13:22:00,70.8,47.2,29.92,ESE,108,2.0,4.0,43,0.01,,,0.01,VWS V15.00,2017-10-23 18:22:00,
2017-10-23 13:27:00,70.3,46.2,29.92,SSE,158,1.0,4.0,42,0.01,,,0.01,VWS V15.00,2017-10-23 18:27:00,
2017-10-23 13:32:00,70.2,46.1,29.92,WSW,251,6.0,6.0,42,0.01,,,0.01,VWS V15.00,2017-10-23 18:32:00,
2017-10-23 13:37:00,69.2,48.1,29.92,SSE,155,1.0,4.0,47,0.01,,,0.01,VWS V15.00,2017-10-23 18:37:00,
2017-10-23 13:42:00,70.3,47.4,29.92,NW,315,2.0,4.0,44,0.01,,,0.01,VWS V15.00,2017-10-23 18:42:00,
2017-10-23 13:47:00,69.6,45.5,29.92,WSW,247,3.0,4.0,42,0.01,,,0.01,VWS V15.00,2017-10-23 18:47:00,
2017-10-23 13:52:00,68.9,46.7,29.92,SW,232,2.0,4.0,45,0.00,,,0.01,VWS V15.00,2017-10-23 18:52:00,
2017-10-23 13:57:00,69.1,48.0,29.92,WNW,296,4.0,4.0,47,0.00,,,0.01,VWS V15.00,2017-10-23 18:57:00,
2017-10-23 14:02:00,69.2,47.6,29.94,WNW,292,2.0,4.0,46,0.00,,,0.01,VWS V15.00,2017-10-23 19:02:00,
2017-10-23 14:07:00,69.3,47.1,29.94,NW,320,4.0,4.0,45,0.00,,,0.01,VWS V15.00,2017-10-23 19:07:00,
2017-10-23 14:12:00,69.5,47.8,29.94,WNW,289,3.0,4.0,46,0.00,,,0.01,VWS V15.00,2017-10-23 19:12:00,
2017-10-23 14:17:00,68.7,47.7,29.95,SW,234,2.0,4.0,47,0.00,,,0.01,VWS V15.00,2017-10-23 19:17:00,
2017-10-23 14:22:00,68.6,48.7,29.95,ENE,70,3.0,4.0,49,0.00,,,0.01,VWS V15.00,2017-10-23 19:22:00,
2017-10-23 14:27:00,68.2,47.2,29.95,SSW,209,5.0,5.0,47,0.00,,,0.01,VWS V15.00,2017-10-23 19:27:00,
2017-10-23 14:37:00,68.1,48.2,29.94,WSW,241,2.0,4.0,49,0.00,,,0.01,VWS V15.00,2017-10-23 19:37:00,
2017-10-23 14:42:00,68.4,48.0,29.94,WNW,300,4.0,4.0,48,0.00,,,0.01,VWS V15.00,2017-10-23 19:42:00,
2017-10-23 14:45:00,68.6,50.8,29.95,NNE,22,2.0,6.0,53,0.00,,,0.01,VWS V15.00,2017-10-23 19:45:00,
2017-10-23 14:57:00,68.2,50.4,29.95,WNW,297,4.0,6.0,53,0.00,,,0.01,VWS V15.00,2017-10-23 19:57:00,
2017-10-23 15:02:00,68.9,48.4,29.95,NW,307,3.0,6.0,48,0.00,,,0.01,VWS V15.00,2017-10-23 20:02:00,
2017-10-23 15:07:00,68.5,47.5,29.95,WNW,290,1.0,6.0,47,0.00,,,0.01,VWS V15.00,2017-10-23 20:07:00,
2017-10-23 15:12:00,68.8,48.9,29.95,NW,306,1.0,6.0,49,0.00,,,0.01,VWS V15.00,2017-10-23 20:12:00,
2017-10-23 15:17:00,69.2,48.1,29.95,SSW,213,2.0,6.0,47,0.00,,,0.01,VWS V15.00,2017-10-23 20:17:00,
2017-10-23 15:22:00,69.1,47.5,29.95,West,263,6.0,6.0,46,0.00,,,0.01,VWS V15.00,2017-10-23 20:22:00,
2017-10-23 15:27:00,69.0,48.0,29.95,NW,316,2.0,6.0,47,0.00,,,0.01,VWS V15.00,2017-10-23 20:27:00,
2017-10-23 15:32:00,69.5,49.0,29.95,NW,305,1.0,6.0,48,0.00,,,0.01,VWS V15.00,2017-10-23 20:32:00,
2017-10-23 15:37:00,70.1,48.4,29.95,NE,50,5.0,6.0,46,0.00,,,0.01,VWS V15.00,2017-10-23 20:37:00,
2017-10-23 15:42:00,70.1,46.6,29.95,West,263,3.0,6.0,43,0.00,,,0.01,VWS V15.00,2017-10-23 20:42:00,
2017-10-23 15:52:00,70.2,45.4,29.94,NE,47,2.0,6.0,41,0.00,,,0.01,VWS V15.00,2017-10-23 20:52:00,
2017-10-23 15:57:00,69.7,46.8,29.94,SSE,153,1.0,6.0,44,0.00,,,0.01,VWS V15.00,2017-10-23 20:57:00,
2017-10-23 16:02:00,69.5,46.0,29.95,NNE,28,1.0,6.0,43,0.00,,,0.01,VWS V15.00,2017-10-23 21:02:00,